createdAt,value
2022-10-17T00:00:19.458Z,55.97
2022-10-17T00:01:19.530Z,56.03
2022-10-17T00:02:19.446Z,59.53
2022-10-17T00:03:19.438Z,61.08
2022-10-17T00:04:19.465Z,56.59
2022-10-17T00:05:19.416Z,55.29
2022-10-17T00:06:19.398Z,58.29
2022-10-17T00:07:19.426Z,59.65
2022-10-17T00:08:19.396Z,63.60
2022-10-17T00:09:19.374Z,58.61
2022-10-17T00:10:19.410Z,56.16
2022-10-17T00:11:19.358Z,56.56
2022-10-17T00:12:19.348Z,62.12
2022-10-17T00:13:19.417Z,56.02
2022-10-17T00:14:19.337Z,59.38
2022-10-17T00:15:19.328Z,58.57
2022-10-17T00:16:19.340Z,57.97
2022-10-17T00:17:19.313Z,55.91
2022-10-17T00:18:19.306Z,58.16
2022-10-17T00:19:19.300Z,59.49
2022-10-17T00:20:19.282Z,56.21
2022-10-17T00:21:19.283Z,60.11
2022-10-17T00:22:19.284Z,55.22
2022-10-17T00:23:19.257Z,54.66
2022-10-17T00:24:19.246Z,54.35
2022-10-17T00:25:19.237Z,55.40
2022-10-17T00:26:19.226Z,56.91
2022-10-17T00:27:19.251Z,51.49
2022-10-17T00:28:19.211Z,63.05
2022-10-17T00:29:19.206Z,55.46
2022-10-17T00:30:19.204Z,61.84
2022-10-17T00:31:19.183Z,59.93
2022-10-17T00:32:19.184Z,54.07
2022-10-17T00:33:19.204Z,56.63
2022-10-17T00:34:19.164Z,61.22
2022-10-17T00:35:19.147Z,54.58
2022-10-17T00:36:19.148Z,57.02
2022-10-17T00:37:19.141Z,58.85
2022-10-17T00:38:19.162Z,56.19
2022-10-17T00:39:19.120Z,60.61
2022-10-17T00:40:19.113Z,59.73
2022-10-17T00:41:19.155Z,61.74
2022-10-17T00:42:19.096Z,56.84
2022-10-17T00:43:19.090Z,59.76
2022-10-17T00:44:19.109Z,56.37
2022-10-17T00:45:19.075Z,57.53
2022-10-17T00:46:19.071Z,61.48
2022-10-17T00:47:19.059Z,55.09
2022-10-17T00:48:22.523Z,58.91
2022-10-17T00:49:19.043Z,56.53
2022-10-17T00:50:19.056Z,59.65
2022-10-17T00:51:19.033Z,60.53
2022-10-17T00:52:19.019Z,54.95
2022-10-17T00:53:19.012Z,57.07
2022-10-17T00:54:19.003Z,57.96
2022-10-17T00:55:18.981Z,56.30
2022-10-17T00:56:18.995Z,62.57
2022-10-17T00:57:18.982Z,58.67
2022-10-17T00:58:18.959Z,53.57
2022-10-17T00:59:18.957Z,58.99
2022-10-17T01:00:18.962Z,58.80
2022-10-17T01:01:18.945Z,57.88
2022-10-17T01:02:18.936Z,53.86
2022-10-17T01:03:18.939Z,57.55
2022-10-17T01:04:18.918Z,57.79
2022-10-17T01:05:18.926Z,62.38
2022-10-17T01:06:18.908Z,61.39
2022-10-17T01:07:18.938Z,58.03
2022-10-17T01:08:18.880Z,60.06
2022-10-17T01:09:18.872Z,57.21
2022-10-17T01:10:18.980Z,60.35
2022-10-17T01:11:18.848Z,59.59
2022-10-17T01:12:18.884Z,64.44
2022-10-17T01:13:18.841Z,61.03
2022-10-17T01:14:18.831Z,56.32
2022-10-17T01:15:18.819Z,62.80
2022-10-17T01:16:18.834Z,59.65
2022-10-17T01:17:18.808Z,57.47
2022-10-17T01:18:18.798Z,60.07
2022-10-17T01:19:18.861Z,63.66
2022-10-17T01:20:18.789Z,56.55
2022-10-17T01:21:18.777Z,65.00
2022-10-17T01:22:18.799Z,62.32
2022-10-17T01:23:18.764Z,56.86
2022-10-17T01:24:18.760Z,57.70
2022-10-17T01:25:18.755Z,64.74
2022-10-17T01:26:18.755Z,59.20
2022-10-17T01:27:18.724Z,64.19
2022-10-17T01:28:18.729Z,63.21
2022-10-17T01:29:18.709Z,60.26
2022-10-17T01:30:19.210Z,58.95
2022-10-17T01:31:18.700Z,58.01
2022-10-17T01:32:18.683Z,62.39
2022-10-17T01:33:18.687Z,59.96
2022-10-17T01:34:18.655Z,57.77
2022-10-17T01:35:18.649Z,58.98
2022-10-17T01:36:18.666Z,62.56
2022-10-17T01:37:18.630Z,62.12
2022-10-17T01:38:18.628Z,57.24
2022-10-17T01:39:18.612Z,63.70
2022-10-17T01:40:18.603Z,60.71
2022-10-17T01:41:18.617Z,60.75
2022-10-17T01:42:18.604Z,61.57
2022-10-17T01:43:18.590Z,63.36
2022-10-17T01:44:18.598Z,57.30
2022-10-17T01:45:18.564Z,58.44
2022-10-17T01:46:18.564Z,61.50
2022-10-17T01:47:18.575Z,59.56
2022-10-17T01:48:18.547Z,60.90
2022-10-17T01:49:18.544Z,63.45
2022-10-17T01:50:18.530Z,63.34
2022-10-17T01:51:18.514Z,63.13
2022-10-17T01:52:18.513Z,62.69
2022-10-17T01:53:18.538Z,60.30
2022-10-17T01:54:18.489Z,62.94
2022-10-17T01:55:18.486Z,62.07
2022-10-17T01:56:18.477Z,63.37
2022-10-17T01:57:18.470Z,63.37
2022-10-17T01:58:18.460Z,64.53
2022-10-17T01:59:18.476Z,61.11
2022-10-17T02:00:18.449Z,58.98
2022-10-17T02:01:18.521Z,61.07
2022-10-17T02:02:18.434Z,58.53
2022-10-17T02:03:18.426Z,64.66
2022-10-17T02:04:18.417Z,61.29
2022-10-17T02:05:18.438Z,60.52
2022-10-17T02:06:18.396Z,61.12
2022-10-17T02:07:18.396Z,58.55
2022-10-17T02:08:18.388Z,63.20
2022-10-17T02:09:18.380Z,62.37
2022-10-17T02:10:18.362Z,60.27
2022-10-17T02:11:18.371Z,58.37
2022-10-17T02:12:18.344Z,62.99
2022-10-17T02:13:18.336Z,59.19
2022-10-17T02:14:18.344Z,62.81
2022-10-17T02:15:18.322Z,61.07
2022-10-17T02:16:18.342Z,63.07
2022-10-17T02:17:18.313Z,64.97
2022-10-17T02:18:18.343Z,63.23
2022-10-17T02:19:18.319Z,62.63
2022-10-17T02:20:18.295Z,63.61
2022-10-17T02:21:18.270Z,57.78
2022-10-17T02:22:18.264Z,63.94
2022-10-17T02:24:18.276Z,54.39
2022-10-17T02:25:18.268Z,65.17
2022-10-17T02:26:18.263Z,65.58
2022-10-17T02:27:18.218Z,64.54
2022-10-17T02:28:18.295Z,62.87
2022-10-17T02:29:18.218Z,62.92
2022-10-17T02:30:18.215Z,60.60
2022-10-17T02:31:18.233Z,60.69
2022-10-17T02:32:18.214Z,60.55
2022-10-17T02:33:18.183Z,57.99
2022-10-17T02:34:18.168Z,61.37
2022-10-17T02:35:18.184Z,62.71
2022-10-17T02:36:18.183Z,64.30
2022-10-17T02:37:18.168Z,63.66
2022-10-17T02:38:18.166Z,60.57
2022-10-17T02:39:18.138Z,62.75
2022-10-17T02:40:18.247Z,62.59
2022-10-17T02:41:18.249Z,61.97
2022-10-17T02:42:18.128Z,64.53
2022-10-17T02:43:18.122Z,63.11
2022-10-17T02:44:18.093Z,65.11
2022-10-17T02:45:18.083Z,59.71
2022-10-17T02:46:18.078Z,60.84
2022-10-17T02:47:18.064Z,63.01
2022-10-17T02:48:18.059Z,62.03
2022-10-17T02:49:18.069Z,61.46
2022-10-17T02:50:18.074Z,57.39
2022-10-17T02:51:18.038Z,56.46
2022-10-17T02:52:18.038Z,57.23
2022-10-17T02:53:18.028Z,61.48
2022-10-17T02:54:18.015Z,64.59
2022-10-17T02:55:18.047Z,65.69
2022-10-17T02:56:18.054Z,65.64
2022-10-17T02:57:17.985Z,66.27
2022-10-17T02:58:17.975Z,66.12
2022-10-17T02:59:17.958Z,64.39
2022-10-17T03:00:17.949Z,60.26
2022-10-17T03:01:17.995Z,60.33
2022-10-17T03:02:17.997Z,62.31
2022-10-17T03:03:17.943Z,64.13
2022-10-17T03:04:18.081Z,63.54
2022-10-17T03:05:17.961Z,65.39
2022-10-17T03:06:17.913Z,63.08
2022-10-17T03:07:17.912Z,61.59
2022-10-17T03:08:17.892Z,61.62
2022-10-17T03:09:17.881Z,61.07
2022-10-17T03:10:17.880Z,61.59
2022-10-17T03:11:17.890Z,63.60
2022-10-17T03:12:17.952Z,63.92
2022-10-17T03:13:18.646Z,64.31
2022-10-17T03:14:17.843Z,65.09
2022-10-17T03:15:17.847Z,64.99
2022-10-17T03:16:17.825Z,62.89
2022-10-17T03:17:17.813Z,63.22
2022-10-17T03:18:17.830Z,61.41
2022-10-17T03:19:17.793Z,62.82
2022-10-17T03:20:17.800Z,64.83
2022-10-17T03:21:17.778Z,64.26
2022-10-17T03:22:17.779Z,63.70
2022-10-17T03:23:17.764Z,62.16
2022-10-17T03:24:17.827Z,62.79
2022-10-17T03:25:17.771Z,58.67
2022-10-17T03:26:17.751Z,63.00
2022-10-17T03:27:17.743Z,65.93
2022-10-17T03:28:17.748Z,64.20
2022-10-17T03:29:17.722Z,65.89
2022-10-17T03:30:17.736Z,65.65
2022-10-17T03:31:17.719Z,66.87
2022-10-17T03:32:17.693Z,64.50
2022-10-17T03:33:17.683Z,64.15
2022-10-17T03:34:17.678Z,63.64
2022-10-17T03:35:17.677Z,66.07
2022-10-17T03:36:17.697Z,62.08
2022-10-17T03:37:17.661Z,65.00
2022-10-17T03:38:17.675Z,65.60
2022-10-17T03:39:17.650Z,62.53
2022-10-17T03:40:17.644Z,62.77
2022-10-17T03:41:17.702Z,63.72
2022-10-17T03:42:17.615Z,66.50
2022-10-17T03:43:17.606Z,64.29
2022-10-17T03:44:17.608Z,63.91
2022-10-17T03:45:17.592Z,65.22
2022-10-17T03:47:17.579Z,63.44
2022-10-17T03:48:17.601Z,64.14
2022-10-17T03:49:17.563Z,63.57
2022-10-17T03:50:17.556Z,65.05
2022-10-17T03:51:17.558Z,64.99
2022-10-17T03:52:17.545Z,64.72
2022-10-17T03:53:17.542Z,66.40
2022-10-17T03:54:17.621Z,65.82
2022-10-17T03:55:17.520Z,66.99
2022-10-17T03:56:17.540Z,63.18
2022-10-17T03:57:17.492Z,66.17
2022-10-17T03:58:17.489Z,66.27
2022-10-17T03:59:17.500Z,63.52
2022-10-17T04:00:17.475Z,65.43
2022-10-17T04:01:17.521Z,65.64
2022-10-17T04:02:17.466Z,66.82
2022-10-17T04:03:17.519Z,66.59
2022-10-17T04:04:17.437Z,65.39
2022-10-17T04:05:17.468Z,66.82
2022-10-17T04:06:17.433Z,64.21
2022-10-17T04:07:17.497Z,62.54
2022-10-17T04:08:17.418Z,62.04
2022-10-17T04:09:17.410Z,63.96
2022-10-17T04:10:17.400Z,62.79
2022-10-17T04:11:17.410Z,64.92
2022-10-17T04:12:17.373Z,66.41
2022-10-17T04:13:17.361Z,63.48
2022-10-17T04:14:17.355Z,63.65
2022-10-17T04:15:17.349Z,64.89
2022-10-17T04:16:17.379Z,60.79
2022-10-17T04:17:17.379Z,62.68
2022-10-17T04:18:17.325Z,64.49
2022-10-17T04:19:17.316Z,61.99
2022-10-17T04:20:17.320Z,62.36
2022-10-17T04:21:17.312Z,61.97
2022-10-17T04:22:17.306Z,64.19
2022-10-17T04:23:17.316Z,65.16
2022-10-17T04:24:17.284Z,64.92
2022-10-17T04:25:17.270Z,63.17
2022-10-17T04:26:17.266Z,63.04
2022-10-17T04:27:17.259Z,60.28
2022-10-17T04:28:17.332Z,63.11
2022-10-17T04:29:17.262Z,60.20
2022-10-17T04:30:17.225Z,58.53
2022-10-17T04:31:17.219Z,63.35
2022-10-17T04:32:17.220Z,62.27
2022-10-17T04:33:17.205Z,64.97
2022-10-17T04:34:17.201Z,63.14
2022-10-17T04:35:17.208Z,63.29
2022-10-17T04:36:17.181Z,63.53
2022-10-17T04:37:17.202Z,65.35
2022-10-17T04:38:17.265Z,63.61
2022-10-17T04:39:17.159Z,63.18
2022-10-17T04:40:17.345Z,64.72
2022-10-17T04:41:17.172Z,65.78
2022-10-17T04:42:17.144Z,66.12
2022-10-17T04:43:17.121Z,64.10
2022-10-17T04:44:17.152Z,64.54
2022-10-17T04:45:17.117Z,63.32
2022-10-17T04:46:17.106Z,65.09
2022-10-17T04:47:17.153Z,63.68
2022-10-17T04:48:17.256Z,64.95
2022-10-17T04:49:17.091Z,64.27
2022-10-17T04:50:17.071Z,64.15
2022-10-17T04:51:17.549Z,63.33
2022-10-17T04:52:17.055Z,63.36
2022-10-17T04:53:17.066Z,64.46
2022-10-17T04:54:17.043Z,65.28
2022-10-17T04:55:17.023Z,64.00
2022-10-17T04:56:17.039Z,63.41
2022-10-17T04:57:17.033Z,63.44
2022-10-17T04:58:16.993Z,64.55
2022-10-17T04:59:16.985Z,62.50
2022-10-17T05:00:16.996Z,62.94
2022-10-17T05:01:17.065Z,66.02
2022-10-17T05:02:17.026Z,66.72
2022-10-17T05:03:16.968Z,64.89
2022-10-17T05:04:19.883Z,63.52
2022-10-17T05:05:17.954Z,65.07
2022-10-17T05:06:16.948Z,64.09
2022-10-17T05:07:16.956Z,64.82
2022-10-17T05:08:16.945Z,64.76
2022-10-17T05:09:16.912Z,64.72
2022-10-17T05:10:16.910Z,64.62
2022-10-17T05:11:16.904Z,63.04
2022-10-17T05:12:16.954Z,63.97
2022-10-17T05:13:16.887Z,63.21
2022-10-17T05:14:16.868Z,64.31
2022-10-17T05:15:16.867Z,67.35
2022-10-17T05:16:16.857Z,64.83
2022-10-17T05:17:16.860Z,61.99
2022-10-17T05:18:16.876Z,61.40
2022-10-17T05:19:16.835Z,62.73
2022-10-17T05:20:16.836Z,64.66
2022-10-17T05:21:16.821Z,64.81
2022-10-17T05:22:16.828Z,65.55
2022-10-17T05:23:16.810Z,66.69
2022-10-17T05:24:16.827Z,63.68
2022-10-17T05:25:16.788Z,63.70
2022-10-17T05:26:16.775Z,63.67
2022-10-17T05:27:16.778Z,61.86
2022-10-17T05:28:16.756Z,64.63
2022-10-17T05:29:16.754Z,62.72
2022-10-17T05:30:16.780Z,62.58
2022-10-17T05:31:16.757Z,64.31
2022-10-17T05:32:16.749Z,65.10
2022-10-17T05:33:16.720Z,65.61
2022-10-17T05:34:16.713Z,63.67
2022-10-17T05:35:16.706Z,63.58
2022-10-17T05:36:16.718Z,64.86
2022-10-17T05:37:16.700Z,63.97
2022-10-17T05:38:19.555Z,63.93
2022-10-17T05:39:16.668Z,62.89
2022-10-17T05:40:17.581Z,61.61
2022-10-17T05:41:17.526Z,63.33
2022-10-17T05:42:18.271Z,65.96
2022-10-17T05:43:17.990Z,65.36
2022-10-17T05:44:16.710Z,63.86
2022-10-17T05:45:16.629Z,64.49
2022-10-17T05:46:16.615Z,64.04
2022-10-17T05:47:17.253Z,63.78
2022-10-17T05:48:16.647Z,63.54
2022-10-17T05:49:31.998Z,65.50
2022-10-17T05:50:17.579Z,64.90
2022-10-17T05:51:16.571Z,64.27
2022-10-17T05:52:16.567Z,62.53
2022-10-17T05:53:16.556Z,64.44
2022-10-17T05:54:16.574Z,64.51
2022-10-17T05:55:16.566Z,66.71
2022-10-17T05:56:16.546Z,65.54
2022-10-17T05:57:16.551Z,63.72
2022-10-17T05:58:22.179Z,62.90
2022-10-17T05:59:17.529Z,63.90
2022-10-17T06:00:16.502Z,64.78
2022-10-17T06:01:16.520Z,64.55
2022-10-17T06:02:16.616Z,64.44
2022-10-17T06:03:16.477Z,65.46
2022-10-17T06:04:16.489Z,65.80
2022-10-17T06:05:16.503Z,64.41
2022-10-17T06:06:16.541Z,65.10
2022-10-17T06:07:16.444Z,65.71
2022-10-17T06:08:16.442Z,65.22
2022-10-17T06:09:16.472Z,62.16
2022-10-17T06:10:16.651Z,64.37
2022-10-17T06:11:16.427Z,64.31
2022-10-17T06:12:16.415Z,62.99
2022-10-17T06:13:16.472Z,64.06
2022-10-17T06:14:16.395Z,64.34
2022-10-17T06:15:16.430Z,62.44
2022-10-17T06:16:16.394Z,62.20
2022-10-17T06:17:16.537Z,62.69
2022-10-17T06:18:16.362Z,61.99
2022-10-17T06:19:16.356Z,63.51
2022-10-17T06:20:16.364Z,62.97
2022-10-17T06:21:16.387Z,61.90
2022-10-17T06:22:16.325Z,62.61
2022-10-17T06:23:16.337Z,64.89
2022-10-17T06:24:16.316Z,64.09
2022-10-17T06:25:16.305Z,63.09
2022-10-17T06:26:16.306Z,63.36
2022-10-17T06:27:16.317Z,63.19
2022-10-17T06:28:16.290Z,64.10
2022-10-17T06:29:16.275Z,62.45
2022-10-17T06:30:16.275Z,61.46
2022-10-17T06:31:16.273Z,64.32
2022-10-17T06:32:16.252Z,64.84
2022-10-17T06:33:16.284Z,63.51
2022-10-17T06:34:16.235Z,64.90
2022-10-17T06:35:16.232Z,63.28
2022-10-17T06:36:16.239Z,63.91
2022-10-17T06:37:16.243Z,63.34
2022-10-17T06:38:16.202Z,64.23
2022-10-17T06:39:16.196Z,65.01
2022-10-17T06:40:16.206Z,63.21
2022-10-17T06:41:16.173Z,66.08
2022-10-17T06:42:16.170Z,64.66
2022-10-17T06:43:16.220Z,63.64
2022-10-17T06:44:16.151Z,64.62
2022-10-17T06:45:16.156Z,63.35
2022-10-17T06:46:16.126Z,62.26
2022-10-17T06:47:17.899Z,63.41
2022-10-17T06:48:16.142Z,62.62
2022-10-17T06:49:16.143Z,62.69
2022-10-17T06:50:16.106Z,62.08
2022-10-17T06:51:16.106Z,63.22
2022-10-17T06:52:16.081Z,65.26
2022-10-17T06:53:16.124Z,63.51
2022-10-17T06:54:16.080Z,62.34
2022-10-17T06:55:19.595Z,59.92
2022-10-17T06:56:17.068Z,60.11
2022-10-17T06:57:16.043Z,61.06
2022-10-17T06:58:16.035Z,61.19
2022-10-17T06:59:16.032Z,61.88
2022-10-17T07:00:16.169Z,63.16
2022-10-17T07:01:16.078Z,62.95
2022-10-17T07:02:16.003Z,63.23
2022-10-17T07:03:16.004Z,63.58
2022-10-17T07:04:16.009Z,64.74
2022-10-17T07:05:16.014Z,61.90
2022-10-17T07:06:15.976Z,62.83
2022-10-17T07:07:15.993Z,63.22
2022-10-17T07:08:15.962Z,63.62
2022-10-17T07:09:16.059Z,64.26
2022-10-17T07:10:15.946Z,62.77
2022-10-17T07:11:15.937Z,61.50
2022-10-17T07:12:15.940Z,62.74
2022-10-17T07:13:15.942Z,63.39
2022-10-17T07:14:15.904Z,65.10
2022-10-17T07:15:15.897Z,63.43
2022-10-17T07:16:15.886Z,62.80
2022-10-17T07:17:15.940Z,63.73
2022-10-17T07:18:15.883Z,64.20
2022-10-17T07:19:15.868Z,62.92
2022-10-17T07:20:15.854Z,61.72
2022-10-17T07:21:15.857Z,62.59
2022-10-17T07:22:15.880Z,63.30
2022-10-17T07:23:15.834Z,62.58
2022-10-17T07:24:15.827Z,65.58
2022-10-17T07:25:15.832Z,64.86
2022-10-17T07:26:15.812Z,64.94
2022-10-17T07:27:15.829Z,65.65
2022-10-17T07:28:15.861Z,66.44
2022-10-17T07:29:15.843Z,63.10
2022-10-17T07:30:15.814Z,61.29
2022-10-17T07:31:15.773Z,61.36
2022-10-17T07:32:15.757Z,63.45
2022-10-17T07:33:15.800Z,63.68
2022-10-17T07:34:15.789Z,64.67
2022-10-17T07:35:15.735Z,61.62
2022-10-17T07:36:16.283Z,61.84
2022-10-17T07:37:15.725Z,61.26
2022-10-17T07:38:15.708Z,62.13
2022-10-17T07:39:15.704Z,62.40
2022-10-17T07:40:15.744Z,62.40
2022-10-17T07:41:19.271Z,62.30
2022-10-17T07:42:16.688Z,60.29
2022-10-17T07:43:15.704Z,60.92
2022-10-17T07:44:15.659Z,61.79
2022-10-17T07:45:15.680Z,62.06
2022-10-17T07:46:15.653Z,64.31
2022-10-17T07:47:15.641Z,62.49
2022-10-17T07:48:15.618Z,63.54
2022-10-17T07:49:15.603Z,63.09
2022-10-17T07:50:15.655Z,60.31
2022-10-17T07:51:15.613Z,60.94
2022-10-17T07:52:15.594Z,62.38
2022-10-17T07:53:15.613Z,61.97
2022-10-17T07:54:15.563Z,60.37
2022-10-17T07:55:15.585Z,62.07
2022-10-17T07:56:15.600Z,62.19
2022-10-17T07:57:15.541Z,59.02
2022-10-17T07:58:15.626Z,59.90
2022-10-17T07:59:15.526Z,60.78
2022-10-17T08:00:15.510Z,60.59
2022-10-17T08:01:16.117Z,60.54
2022-10-17T08:02:15.597Z,58.81
2022-10-17T08:03:15.514Z,60.65
2022-10-17T08:04:15.488Z,60.23
2022-10-17T08:05:15.497Z,59.50
2022-10-17T08:06:15.497Z,59.12
2022-10-17T08:07:22.132Z,58.49
2022-10-17T08:08:16.477Z,59.42
2022-10-17T08:09:15.454Z,58.03
2022-10-17T08:10:15.426Z,59.14
2022-10-17T08:11:15.440Z,59.91
2022-10-17T08:12:15.415Z,59.24
2022-10-17T08:13:15.408Z,58.76
2022-10-17T08:14:15.451Z,59.87
2022-10-17T08:15:15.391Z,60.11
2022-10-17T08:16:15.384Z,61.62
2022-10-17T08:17:15.378Z,60.83
2022-10-17T08:18:15.391Z,61.56
2022-10-17T08:19:15.406Z,60.55
2022-10-17T08:20:15.353Z,59.84
2022-10-17T08:21:15.387Z,60.41
2022-10-17T08:22:15.363Z,61.08
2022-10-17T08:23:15.335Z,60.14
2022-10-17T08:24:15.311Z,60.53
2022-10-17T08:25:15.310Z,61.18
2022-10-17T08:26:15.302Z,59.68
2022-10-17T08:27:15.327Z,58.79
2022-10-17T08:28:15.289Z,58.61
2022-10-17T08:29:15.287Z,58.90
2022-10-17T08:30:15.320Z,62.03
2022-10-17T08:31:15.289Z,60.38
2022-10-17T08:32:15.265Z,59.82
2022-10-17T08:33:15.283Z,62.37
2022-10-17T08:34:15.248Z,62.84
2022-10-17T08:35:15.237Z,59.91
2022-10-17T08:36:15.249Z,62.11
2022-10-17T08:37:15.231Z,60.04
2022-10-17T08:38:16.015Z,60.73
2022-10-17T08:39:15.214Z,62.00
2022-10-17T08:40:15.191Z,61.93
2022-10-17T08:41:15.184Z,61.83
2022-10-17T08:42:15.223Z,61.73
2022-10-17T08:43:15.168Z,61.83
2022-10-17T08:44:15.163Z,61.27
2022-10-17T08:45:15.152Z,62.12
2022-10-17T08:47:15.196Z,60.91
2022-10-17T08:48:15.138Z,60.76
2022-10-17T08:49:15.137Z,59.79
2022-10-17T08:50:15.135Z,60.00
2022-10-17T08:51:15.109Z,62.02
2022-10-17T08:52:15.105Z,60.55
2022-10-17T08:53:15.086Z,59.83
2022-10-17T08:54:15.084Z,60.37
2022-10-17T08:55:15.154Z,60.00
2022-10-17T08:56:19.890Z,66.08
2022-10-17T08:57:16.085Z,64.60
2022-10-17T08:58:15.050Z,63.72
2022-10-17T08:59:15.271Z,65.12
2022-10-17T09:00:15.027Z,72.21
2022-10-17T09:01:15.146Z,70.03
2022-10-17T09:02:15.018Z,66.94
2022-10-17T09:03:15.111Z,70.99
2022-10-17T09:04:15.014Z,58.16
2022-10-17T09:05:15.001Z,59.54
2022-10-17T09:06:14.991Z,60.79
2022-10-17T09:07:14.984Z,63.57
2022-10-17T09:08:14.989Z,76.76
2022-10-17T09:09:14.999Z,75.93
2022-10-17T09:10:14.961Z,75.56
2022-10-17T09:11:14.952Z,75.55
2022-10-17T09:12:14.943Z,76.76
2022-10-17T09:13:15.009Z,78.58
2022-10-17T09:14:14.956Z,79.58
2022-10-17T09:15:14.909Z,78.29
2022-10-17T09:16:14.910Z,79.48
2022-10-17T09:17:14.890Z,78.29
2022-10-17T09:18:16.696Z,78.75
2022-10-17T09:19:14.888Z,77.72
2022-10-17T09:20:14.900Z,82.33
2022-10-17T09:21:14.872Z,78.18
2022-10-17T09:22:14.867Z,73.74
2022-10-17T09:23:14.852Z,69.77
2022-10-17T09:24:16.112Z,76.54
2022-10-17T09:25:14.893Z,79.11
2022-10-17T09:26:14.838Z,82.64
2022-10-17T09:27:14.831Z,74.13
2022-10-17T09:28:14.810Z,59.67
2022-10-17T09:29:14.807Z,62.05
2022-10-17T09:30:26.918Z,62.28
2022-10-17T09:31:15.799Z,59.78
2022-10-17T09:32:14.785Z,59.67
2022-10-17T09:33:28.268Z,59.94
2022-10-17T09:34:15.774Z,60.65
2022-10-17T09:35:14.762Z,70.18
2022-10-17T09:36:14.776Z,73.57
2022-10-17T09:37:14.747Z,85.26
2022-10-17T09:38:14.751Z,78.57
2022-10-17T09:39:14.734Z,62.69
2022-10-17T09:40:14.735Z,59.99
2022-10-17T09:42:15.726Z,60.80
2022-10-17T09:43:14.698Z,60.60
2022-10-17T09:44:14.689Z,60.81
2022-10-17T09:45:14.691Z,60.77
2022-10-17T09:46:14.689Z,60.45
2022-10-17T09:47:14.675Z,60.30
2022-10-17T09:48:14.699Z,62.70
2022-10-17T09:49:16.508Z,60.85
2022-10-17T09:50:14.690Z,60.72
2022-10-17T09:51:25.804Z,62.84
2022-10-17T09:52:15.639Z,63.53
2022-10-17T09:53:14.642Z,61.38
2022-10-17T09:54:14.648Z,63.49
2022-10-17T09:55:14.623Z,59.21
2022-10-17T09:56:14.599Z,61.49
2022-10-17T09:57:14.604Z,62.07
2022-10-17T09:58:14.582Z,61.86
2022-10-17T09:59:14.586Z,58.84
2022-10-17T10:01:16.451Z,60.12
2022-10-17T10:02:14.567Z,60.22
2022-10-17T10:03:14.560Z,60.71
2022-10-17T10:04:14.555Z,60.16
2022-10-17T10:05:14.593Z,63.22
2022-10-17T10:06:14.558Z,60.38
2022-10-17T10:07:14.526Z,62.08
2022-10-17T10:08:14.527Z,60.24
2022-10-17T10:09:14.564Z,60.74
2022-10-17T10:10:14.510Z,61.82
2022-10-17T10:11:14.625Z,65.48
2022-10-17T10:12:14.491Z,73.53
2022-10-17T10:13:14.497Z,61.44
2022-10-17T10:14:14.480Z,60.43
2022-10-17T10:15:14.514Z,60.27
2022-10-17T10:16:14.466Z,60.83
2022-10-17T10:17:14.463Z,59.92
2022-10-17T10:18:14.441Z,59.24
2022-10-17T10:19:14.473Z,60.41
2022-10-17T10:20:14.425Z,59.39
2022-10-17T10:21:14.427Z,60.45
2022-10-17T10:22:14.422Z,58.11
2022-10-17T10:23:14.456Z,58.64
2022-10-17T10:24:14.402Z,58.63
2022-10-17T10:25:14.390Z,60.97
2022-10-17T10:26:16.789Z,61.10
2022-10-17T10:27:14.373Z,60.68
2022-10-17T10:28:14.386Z,61.90
2022-10-17T10:29:14.365Z,58.21
2022-10-17T10:30:14.360Z,61.99
2022-10-17T10:31:14.394Z,60.51
2022-10-17T10:32:14.380Z,60.76
2022-10-17T10:33:14.342Z,61.93
2022-10-17T10:34:14.359Z,60.92
2022-10-17T10:35:14.329Z,62.53
2022-10-17T10:36:14.905Z,60.79
2022-10-17T10:37:16.165Z,62.38
2022-10-17T10:38:14.312Z,58.92
2022-10-17T10:39:14.352Z,62.50
2022-10-17T10:40:14.311Z,61.80
2022-10-17T10:41:14.302Z,60.24
2022-10-17T10:42:14.272Z,59.18
2022-10-17T10:43:14.270Z,58.87
2022-10-17T10:44:14.263Z,62.61
2022-10-17T10:45:19.121Z,61.03
2022-10-17T10:46:15.307Z,61.41
2022-10-17T10:47:14.240Z,62.71
2022-10-17T10:48:14.240Z,62.14
2022-10-17T10:49:14.230Z,58.98
2022-10-17T10:50:14.225Z,62.36
2022-10-17T10:51:14.290Z,62.26
2022-10-17T10:52:14.233Z,61.28
2022-10-17T10:53:14.204Z,61.28
2022-10-17T10:54:14.215Z,58.39
2022-10-17T10:55:14.186Z,61.62
2022-10-17T10:56:14.175Z,63.52
2022-10-17T10:57:14.170Z,60.16
2022-10-17T10:58:14.161Z,62.08
2022-10-17T10:59:14.189Z,61.63
2022-10-17T11:00:14.180Z,60.17
2022-10-17T11:01:14.214Z,61.11
2022-10-17T11:02:14.178Z,59.23
2022-10-17T11:03:14.200Z,60.45
2022-10-17T11:04:14.128Z,60.69
2022-10-17T11:05:14.175Z,61.90
2022-10-17T11:06:14.106Z,60.33
2022-10-17T11:07:14.089Z,58.74
2022-10-17T11:08:14.185Z,59.10
2022-10-17T11:09:14.923Z,59.85
2022-10-17T11:10:14.075Z,62.03
2022-10-17T11:11:14.083Z,58.72
2022-10-17T11:12:14.068Z,58.12
2022-10-17T11:13:14.162Z,61.32
2022-10-17T11:14:14.061Z,61.42
2022-10-17T11:15:14.045Z,62.43
2022-10-17T11:16:14.040Z,61.12
2022-10-17T11:17:14.049Z,59.83
2022-10-17T11:18:14.027Z,58.85
2022-10-17T11:19:14.042Z,60.14
2022-10-17T11:20:14.017Z,62.83
2022-10-17T11:21:14.159Z,59.80
2022-10-17T11:22:13.987Z,59.37
2022-10-17T11:23:14.327Z,60.16
2022-10-17T11:24:14.171Z,60.50
2022-10-17T11:25:14.020Z,59.78
2022-10-17T11:26:13.989Z,61.17
2022-10-17T11:27:14.071Z,59.99
2022-10-17T11:28:13.969Z,60.46
2022-10-17T11:29:13.982Z,58.33
2022-10-17T11:30:14.117Z,59.39
2022-10-17T11:31:14.178Z,60.22
2022-10-17T11:32:14.052Z,57.99
2022-10-17T11:33:13.929Z,59.44
2022-10-17T11:34:13.917Z,60.81
2022-10-17T11:35:13.915Z,61.36
2022-10-17T11:36:13.891Z,61.81
2022-10-17T11:37:14.845Z,59.25
2022-10-17T11:38:13.891Z,58.86
2022-10-17T11:39:13.870Z,61.17
2022-10-17T11:40:14.020Z,58.84
2022-10-17T11:41:14.011Z,58.35
2022-10-17T11:42:13.876Z,59.77
2022-10-17T11:43:13.932Z,60.92
2022-10-17T11:44:13.835Z,59.97
2022-10-17T11:45:13.835Z,59.64
2022-10-17T11:46:14.884Z,58.69
2022-10-17T11:47:13.849Z,63.05
2022-10-17T11:48:13.998Z,61.84
2022-10-17T11:49:18.997Z,62.48
2022-10-17T11:52:19.494Z,61.55
2022-10-17T11:53:14.768Z,58.27
2022-10-17T11:54:13.762Z,59.50
2022-10-17T11:55:13.801Z,60.61
2022-10-17T11:56:13.754Z,61.91
2022-10-17T11:57:14.758Z,61.77
2022-10-17T11:58:13.775Z,61.74
2022-10-17T11:59:13.896Z,60.86
2022-10-17T12:00:13.927Z,62.24
2022-10-17T12:01:13.722Z,62.55
2022-10-17T12:02:13.741Z,61.70
2022-10-17T12:03:13.725Z,60.18
2022-10-17T12:04:13.760Z,61.32
2022-10-17T12:05:13.674Z,62.14
2022-10-17T12:06:13.702Z,57.41
2022-10-17T12:07:13.676Z,60.31
2022-10-17T12:08:22.426Z,58.51
2022-10-17T12:09:13.657Z,61.81
2022-10-17T12:10:13.648Z,61.63
2022-10-17T12:11:13.656Z,60.32
2022-10-17T12:12:13.680Z,63.03
2022-10-17T12:13:13.666Z,59.08
2022-10-17T12:14:13.666Z,61.60
2022-10-17T12:15:13.626Z,61.95
2022-10-17T12:16:17.452Z,60.29
2022-10-17T12:17:13.634Z,60.53
2022-10-17T12:18:13.588Z,61.62
2022-10-17T12:19:13.796Z,60.28
2022-10-17T12:20:13.618Z,63.16
2022-10-17T12:21:13.569Z,61.28
2022-10-17T12:22:13.591Z,62.53
2022-10-17T12:23:13.609Z,62.20
2022-10-17T12:24:18.170Z,60.77
2022-10-17T12:25:15.105Z,61.73
2022-10-17T12:26:13.576Z,64.17
2022-10-17T12:27:13.532Z,61.85
2022-10-17T12:28:13.529Z,62.22
2022-10-17T12:29:13.568Z,59.48
2022-10-17T12:30:13.525Z,61.61
2022-10-17T12:31:13.578Z,61.67
2022-10-17T12:32:13.479Z,61.84
2022-10-17T12:33:13.487Z,60.90
2022-10-17T12:34:13.472Z,60.31
2022-10-17T12:35:13.498Z,61.14
2022-10-17T12:36:13.480Z,62.65
2022-10-17T12:37:13.479Z,63.00
2022-10-17T12:38:13.442Z,62.50
2022-10-17T12:39:13.445Z,60.31
2022-10-17T12:40:13.438Z,62.46
2022-10-17T12:41:13.500Z,63.64
2022-10-17T12:42:13.454Z,60.35
2022-10-17T12:43:13.501Z,62.17
2022-10-17T12:44:13.476Z,61.67
2022-10-17T12:45:13.578Z,62.18
2022-10-17T12:46:13.389Z,62.28
2022-10-17T12:47:13.397Z,61.65
2022-10-17T12:48:13.364Z,58.80
2022-10-17T12:49:13.358Z,58.25
2022-10-17T12:50:13.355Z,59.61
2022-10-17T12:52:14.363Z,59.95
2022-10-17T12:53:16.917Z,60.46
2022-10-17T12:54:14.334Z,61.92
2022-10-17T12:55:14.238Z,60.45
2022-10-17T12:56:13.310Z,57.92
2022-10-17T12:57:13.310Z,58.08
2022-10-17T12:58:13.328Z,59.66
2022-10-17T12:59:13.335Z,60.26
2022-10-17T13:00:13.270Z,60.45